Главная страница
METAR-TAF:

METAR-TAF

Аэропорты :

Тегеран, Иран

Мехрабад

широта: 35-41N, долгота: 051-21E, высота над уровнем моря: 1204 м

Текущие метеонаблюдения

Эта сводка был подготовлена 25 минут назад, в 05:30 UTC
Штиль
Температура 9°C
Влажность 46%
Давление 1017 hPa
Видимость: 8000 м
небольшая облачность на высоте 3500 фута
Отдельные облака на высоте 10000 фута

METAR: OIII 240530Z 00000KT 8000 FEW035 SCT100 09/M02 Q1017 A3003

Время: 09:25 (05:55 UTC)

Прогноз

Эта сводка был подготовлена 6 часа и 55 минут назад, в 23:00 UTC
Прогноз действительный с 24-го 00 UTC до 25-го 06 UTC
Ветер 8 Узел от северный
Видимость: 8000 м
небольшая облачность на высоте 4000 фута

TAF: OIII 232300Z 2400/2506 35004MPS 8000 FEW040

Метеонаблюдения и прогнозы для более 4000 аэропортов (сводки METAR и TAF).

Имеющиеся станции представлены на карте желтыми и красными точками.

Чтобы увидеть название станции, наведите на нее мышь.

Затем щелкните, чтобы увидеть метеонаблюдения и метеопрогнозы.

Управление картой: чтобы увеличить масштаб, щелкните зеленые кнопки с черным крестиком; чтобы уменьшить масштаб, щелкните зеленую кнопку с тире; для просмотра соседних карт щелкайте зеленые стрелки.


METAR-TAF: